This is the latest recevied weather packets stored in our database for station/object KD4WLE. If no packets are shown the sender has not sent any weather packets the latest 10 day(s).
| Time | Temp. | Humidity | Pressure | Rain* | Wind** | Luminosity | Snow |
|---|---|---|---|---|---|---|---|
| 1777842280 | 23.89° C | 73% | 1016.9 hPa | 0 mm | - | 164 W/m² | - |
| 1777841979 | 23.89° C | 73% | 1017 hPa | 0 mm | - | 209 W/m² | - |
| 1777841677 | 25° C | 70% | 1016.9 hPa | 0 mm | - | 419 W/m² | - |
| 1777841373 | 24.44° C | 70% | 1016.9 hPa | 0 mm | - | 523 W/m² | - |
| 1777841070 | 24.44° C | 70% | 1016.8 hPa | 0 mm | - | 475 W/m² | - |
| 1777840767 | 25° C | 70% | 1017.1 hPa | 0 mm | - | 590 W/m² | - |
| 1777840465 | 25° C | 70% | 1017.1 hPa | 0 mm | - | 591 W/m² | - |
| 1777840161 | 25° C | 70% | 1017 hPa | 0 mm | - | 604 W/m² | - |
| 1777839860 | 25° C | 69% | 1017 hPa | 0 mm | - | 624 W/m² | - |
| 1777839558 | 25° C | 71% | 1017.1 hPa | 0 mm | - | 629 W/m² | - |
| 1777839254 | 25° C | 70% | 1017.1 hPa | 0 mm | - | 195 W/m² | - |
| 1777838952 | 24.44° C | 70% | 1017.1 hPa | 0 mm | - | 637 W/m² | - |
| 1777838648 | 25° C | 70% | 1017.1 hPa | 0 mm | - | 616 W/m² | - |
| 1777838345 | 23.89° C | 72% | 1017.4 hPa | 0 mm | - | 627 W/m² | - |
| 1777838042 | 25° C | 70% | 1017.3 hPa | 0 mm | - | 637 W/m² | - |
| 1777837739 | 23.89° C | 72% | 1017.4 hPa | 0 mm | - | 650 W/m² | - |
| 1777837435 | 25° C | 70% | 1017.5 hPa | 0 mm | - | 664 W/m² | - |
| 1777837131 | 24.44° C | 71% | 1017.7 hPa | 0 mm | - | 686 W/m² | - |
| 1777836827 | 24.44° C | 72% | 1017.5 hPa | 0 mm | - | 683 W/m² | - |
| 1777836523 | 24.44° C | 70% | 1017.7 hPa | 0 mm | - | 683 W/m² | - |
| 1777836219 | 24.44° C | 70% | 1017.6 hPa | 0 mm | - | 701 W/m² | - |
| 1777835915 | 24.44° C | 72% | 1017.9 hPa | 0 mm | - | 710 W/m² | - |
| 1777835612 | 24.44° C | 71% | 1017.9 hPa | 0 mm | - | 717 W/m² | - |
| 1777835310 | 24.44° C | 70% | 1017.9 hPa | 0 mm | - | 725 W/m² | - |
| 1777835007 | 23.89° C | 72% | 1018.5 hPa | 0 mm | - | 737 W/m² | - |
* Rain latest hour (hover to see other rain measurements)
** Current wind speed in m/s (hover to see current wind gust speed)